Time;durP1;ratioP1;P1;durP2;ratioP2;P2;SDS_P1;SDS_P2;PMS_P1;PMS_P2;Temp;Humidity;BMP_temperature;BMP_pressure;BME280_temperature;BME280_humidity;BME280_pressure;Samples;Min_cycle;Max_cycle;Signal;HPM_P1;HPM_P2
2023/03/26 00:00:29;;;;;;;26.20;13.80;;;;;;;8.63;99.58;100053.16;111067;1235;64365;-96
2023/03/26 00:03:02;;;;;;;21.80;15.20;;;;;;;8.61;99.56;100049.98;111347;1234;72815;-95
2023/03/26 00:05:39;;;;;;;20.80;15.50;;;;;;;8.68;99.52;100059.64;110987;1241;63059;-96
2023/03/26 00:08:17;;;;;;;20.10;14.30;;;;;;;8.68;99.40;100054.94;110039;1241;59300;-94
2023/03/26 00:10:45;;;;;;;19.30;14.70;;;;;;;8.68;99.24;100053.90;110546;1238;73130;-94
2023/03/26 00:13:16;;;;;;;15.90;12.10;;;;;;;8.65;98.99;100059.83;111762;1238;63489;-94
2023/03/26 00:16:17;;;;;;;14.70;12.10;;;;;;;8.59;98.84;100053.75;112142;1231;72547;-94
2023/03/26 00:18:48;;;;;;;18.20;14.20;;;;;;;8.52;98.93;100057.50;111603;1232;61803;-94
2023/03/26 00:21:24;;;;;;;19.20;13.60;;;;;;;8.48;98.98;100046.89;110122;1231;61269;-96
2023/03/26 00:24:15;;;;;;;18.60;14.10;;;;;;;8.49;99.29;100053.48;110341;1231;73709;-94
2023/03/26 00:26:52;;;;;;;18.50;13.60;;;;;;;8.52;99.51;100047.75;109752;1232;62660;-94
2023/03/26 00:29:26;;;;;;;18.00;13.40;;;;;;;8.56;99.63;100044.39;109679;1232;72475;-94
2023/03/26 00:31:54;;;;;;;20.60;15.20;;;;;;;8.60;99.59;100040.98;110060;1232;62572;-95
2023/03/26 00:34:26;;;;;;;18.50;12.70;;;;;;;8.60;99.47;100034.33;110602;1236;60025;-93
2023/03/26 00:37:03;;;;;;;17.00;12.30;;;;;;;8.59;99.29;100028.13;110930;1235;74004;-92
2023/03/26 00:39:53;;;;;;;17.30;12.80;;;;;;;8.54;99.07;100024.08;110594;1239;62940;-95
2023/03/26 00:42:47;;;;;;;15.60;12.50;;;;;;;8.54;99.21;100021.66;104149;1289;600236;-96
2023/03/26 00:45:22;;;;;;;18.60;14.20;;;;;;;8.49;99.09;100014.45;106404;1269;61454;-96
2023/03/26 00:47:53;;;;;;;18.30;13.40;;;;;;;8.44;99.06;100010.59;107866;1267;60391;-93
2023/03/26 00:50:28;;;;;;;18.60;14.30;;;;;;;8.42;99.17;100013.16;107449;1269;72223;-95
2023/03/26 00:53:13;;;;;;;;;;;;;;;8.40;99.21;100007.33;106940;1263;63126;-95
2023/03/26 00:55:59;;;;;;;17.60;13.50;;;;;;;8.37;99.35;100007.65;105500;1260;1949137;-95
2023/03/26 00:58:35;;;;;;;19.40;15.40;;;;;;;8.38;99.62;100006.58;107796;1260;60910;-93
2023/03/26 01:01:31;;;;;;;17.50;13.30;;;;;;;8.39;99.77;100003.04;108162;1260;60271;-93
2023/03/26 01:04:33;;;;;;;23.10;14.30;;;;;;;8.39;99.89;100001.82;109489;1249;73529;31
2023/03/26 01:07:46;;;;;;;20.00;13.80;;;;;;;8.41;99.70;100000.30;109386;1257;62701;-93
2023/03/26 01:10:21;;;;;;;24.50;14.80;;;;;;;8.41;99.70;100002.38;108377;1257;71807;-95
2023/03/26 01:13:22;;;;;;;20.30;13.60;;;;;;;8.45;99.46;99997.46;109111;1257;60482;-95
2023/03/26 01:16:08;;;;;;;21.30;14.30;;;;;;;8.46;99.21;99995.98;109053;1256;59990;-94
2023/03/26 01:18:44;;;;;;;20.30;14.20;;;;;;;8.45;98.92;99996.40;109229;1257;71908;-93
2023/03/26 01:21:21;;;;;;;21.10;15.00;;;;;;;8.47;98.73;99992.30;108629;1256;64024;-93
2023/03/26 01:24:02;;;;;;;18.10;12.70;;;;;;;8.46;98.49;99993.73;109284;1257;73138;-94
2023/03/26 01:27:09;;;;;;;17.90;14.50;;;;;;;8.45;98.24;99992.23;109146;1258;62246;-95
2023/03/26 01:29:51;;;;;;;19.50;13.50;;;;;;;8.44;98.37;99994.39;108674;1267;60341;-93
2023/03/26 01:33:04;;;;;;;14.90;12.00;;;;;;;8.46;98.10;99985.40;109018;1264;72816;-95
2023/03/26 01:35:50;;;;;;;18.90;13.20;;;;;;;8.46;97.94;99985.39;108994;1263;64219;-93
2023/03/26 01:39:17;;;;;;;23.80;15.20;;;;;;;8.47;97.60;99985.30;107976;1260;74067;-94
2023/03/26 01:41:53;;;;;;;16.20;11.90;;;;;;;8.48;97.23;99982.14;107855;1260;62995;-95
2023/03/26 01:44:34;;;;;;;20.10;13.50;;;;;;;8.45;96.47;99982.50;107773;1263;61803;-95
2023/03/26 01:47:22;;;;;;;21.50;11.80;;;;;;;8.35;96.09;99982.34;107360;1263;73958;-95
2023/03/26 01:49:57;;;;;;;22.00;14.70;;;;;;;8.32;95.95;99988.48;107338;1263;64344;-93
2023/03/26 01:52:34;;;;;;;16.90;11.50;;;;;;;8.28;95.58;99990.77;108657;1264;71771;-94
2023/03/26 01:55:13;;;;;;;15.90;11.50;;;;;;;8.24;95.49;99981.82;108595;1264;62531;-94
2023/03/26 01:58:19;;;;;;;15.80;11.50;;;;;;;8.23;95.55;99981.17;108748;1263;59713;-94
2023/03/26 02:01:23;;;;;;;17.50;13.40;;;;;;;8.22;95.41;99985.75;108134;1270;72850;-95
2023/03/26 02:04:13;;;;;;;16.90;12.00;;;;;;;8.17;95.34;99988.01;106643;1270;64931;-95
2023/03/26 02:07:22;;;;;;;15.70;11.90;;;;;;;8.12;95.46;99983.24;107713;1252;72185;-94
2023/03/26 02:10:35;;;;;;;19.30;11.70;;;;;;;8.05;95.62;99974.02;108952;1257;64616;-94
2023/03/26 02:13:58;;;;;;;17.30;13.20;;;;;;;8.05;96.30;99975.26;105600;1291;613315;-96
2023/03/26 02:16:28;;;;;;;20.60;14.10;;;;;;;8.02;96.74;99976.53;107185;1265;60643;-96
2023/03/26 02:19:25;;;;;;;21.50;14.70;;;;;;;8.04;96.90;99982.30;108393;1256;59706;-93
2023/03/26 02:21:58;;;;;;;18.00;12.20;;;;;;;8.08;97.03;99977.67;108732;1255;72688;-94
2023/03/26 02:24:38;;;;;;;20.00;13.10;;;;;;;8.05;96.98;99969.91;108362;1259;63401;-92
2023/03/26 02:27:11;;;;;;;19.80;12.20;;;;;;;8.01;97.26;99969.23;107861;1253;666586;-96
2023/03/26 02:29:52;;;;;;;18.10;12.40;;;;;;;7.98;97.52;99970.52;107853;1252;62534;-95
2023/03/26 02:32:45;;;;;;;18.30;13.60;;;;;;;7.93;97.86;99960.00;108211;1252;59265;-94
2023/03/26 02:35:18;;;;;;;15.60;12.50;;;;;;;7.95;97.89;99961.08;108526;1259;71452;-94
2023/03/26 02:37:53;;;;;;;16.50;11.30;;;;;;;7.97;97.90;99965.13;108595;1253;63967;-93
2023/03/26 02:40:23;;;;;;;18.40;13.00;;;;;;;7.99;97.82;99957.36;108162;1253;73685;-94
2023/03/26 02:43:14;;;;;;;18.20;9.90;;;;;;;7.99;97.68;99952.84;108547;1253;64454;-94
2023/03/26 02:46:07;;;;;;;15.80;9.90;;;;;;;7.93;97.43;99949.55;108062;1257;60914;-95
2023/03/26 02:53:29;;;;;;;13.10;10.40;;;;;;;7.85;96.88;99947.08;108760;1258;63399;-95
2023/03/26 02:56:23;;;;;;;17.30;11.30;;;;;;;7.84;96.95;99949.92;106818;1264;72644;-94
2023/03/26 02:59:13;;;;;;;16.10;10.50;;;;;;;7.84;97.06;99943.27;107003;1258;62460;-93
2023/03/26 03:02:02;;;;;;;19.70;11.90;;;;;;;7.85;97.28;99936.94;108695;1258;62549;-92
2023/03/26 03:08:45;;;;;;;12.70;11.00;;;;;;;7.85;97.91;99935.42;108647;1254;64284;-94
2023/03/26 03:12:24;;;;;;;13.40;11.10;;;;;;;7.84;97.93;99942.73;109606;1258;71129;-94
2023/03/26 03:15:40;;;;;;;14.20;10.40;;;;;;;7.82;98.04;99938.73;109074;1254;61956;-95
2023/03/26 03:19:02;;;;;;;16.40;11.40;;;;;;;7.81;98.07;99947.09;108530;1254;59553;-96
2023/03/26 03:22:28;;;;;;;15.90;11.00;;;;;;;7.76;97.98;99944.80;109123;1255;74471;-96
2023/03/26 03:25:22;;;;;;;13.00;10.90;;;;;;;7.76;98.06;99938.20;108535;1256;63719;-95
2023/03/26 03:28:18;;;;;;;14.30;11.20;;;;;;;7.77;98.11;99938.66;108429;1258;73678;-95
2023/03/26 03:31:17;;;;;;;12.70;10.00;;;;;;;7.78;97.91;99927.33;107663;1262;61939;-93
2023/03/26 03:34:12;;;;;;;20.30;11.60;;;;;;;7.77;97.85;99929.81;106817;1261;61269;-93
2023/03/26 03:37:14;;;;;;;12.90;10.80;;;;;;;7.79;98.08;99933.35;107863;1262;73068;-95
2023/03/26 03:40:11;;;;;;;15.10;10.50;;;;;;;7.78;97.91;99941.59;106966;1265;62357;-95
2023/03/26 03:42:40;;;;;;;14.30;10.70;;;;;;;7.78;98.15;99941.05;106646;1265;72489;-95
2023/03/26 03:45:12;;;;;;;16.30;11.30;;;;;;;7.80;98.05;99940.25;107018;1265;61179;-95
2023/03/26 03:48:12;;;;;;;18.50;10.70;;;;;;;7.79;98.09;99937.83;107078;1271;60169;-96
2023/03/26 03:50:46;;;;;;;;;;;;;;;7.76;97.93;99936.11;107093;1272;72020;-96
2023/03/26 03:54:03;;;;;;;15.60;10.30;;;;;;;7.75;98.13;99935.64;107506;1265;64865;-96
2023/03/26 03:57:00;;;;;;;;;;;;;;;7.74;97.87;99931.52;107351;1265;73083;-96
2023/03/26 04:00:16;;;;;;;10.30;8.80;;;;;;;7.76;97.51;99931.60;107298;1259;61886;-95
2023/03/26 04:03:29;;;;;;;10.20;9.10;;;;;;;7.73;97.01;99931.27;108067;1256;60609;-96
2023/03/26 04:06:36;;;;;;;12.70;9.70;;;;;;;7.68;97.22;99933.60;107680;1261;72037;-93
2023/03/26 04:09:09;;;;;;;14.30;10.00;;;;;;;7.68;97.40;99936.40;107290;1256;63673;-95
2023/03/26 04:11:41;;;;;;;14.20;10.20;;;;;;;7.71;97.58;99943.02;107190;1256;72572;-94
2023/03/26 04:14:49;;;;;;;11.70;8.70;;;;;;;7.75;97.59;99945.37;107639;1259;60511;-96
2023/03/26 04:17:41;;;;;;;10.40;8.30;;;;;;;7.75;97.22;99942.08;108297;1257;61679;-93
2023/03/26 04:20:14;;;;;;;13.00;8.90;;;;;;;7.74;97.09;99943.35;107946;1257;72963;-95
2023/03/26 04:22:47;;;;;;;9.90;8.20;;;;;;;7.70;96.87;99938.59;108123;1257;62919;-93
2023/03/26 04:26:12;;;;;;;11.10;8.60;;;;;;;7.67;97.07;99937.84;108176;1256;71815;-94
2023/03/26 04:29:24;;;;;;;11.20;8.20;;;;;;;7.64;96.91;99931.05;108042;1257;61466;-96
2023/03/26 04:35:48;;;;;;;12.70;9.10;;;;;;;7.63;96.95;99937.95;108287;1259;74839;-95
2023/03/26 04:38:47;;;;;;;13.70;8.30;;;;;;;7.62;97.12;99946.14;107596;1260;65285;-95
2023/03/26 04:41:18;;;;;;;9.80;8.10;;;;;;;7.67;97.17;99947.80;107051;1260;72630;-95
2023/03/26 04:43:56;;;;;;;8.70;7.80;;;;;;;7.69;97.13;99945.90;107267;1265;61848;-95
2023/03/26 04:47:02;;;;;;;10.90;8.20;;;;;;;7.72;97.04;99940.73;108416;1259;60567;-92
2023/03/26 04:49:50;;;;;;;10.80;7.80;;;;;;;7.68;97.02;99936.22;109071;1263;74318;-94
2023/03/26 04:52:29;;;;;;;10.50;7.40;;;;;;;7.73;97.17;99943.80;108830;1261;63447;-95
2023/03/26 04:56:22;;;;;;;8.20;7.20;;;;;;;7.74;97.43;99936.40;108651;1257;72419;-95
2023/03/26 04:59:40;;;;;;;10.80;7.40;;;;;;;7.81;97.30;99944.34;109212;1251;60394;-93
2023/03/26 05:02:56;;;;;;;8.50;6.90;;;;;;;7.84;97.25;99941.70;108733;1256;61785;-96
2023/03/26 05:06:01;;;;;;;10.40;8.70;;;;;;;7.85;97.12;99948.13;109388;1256;72987;-94
2023/03/26 05:08:37;;;;;;;10.30;7.50;;;;;;;7.84;97.18;99952.31;109137;1256;64569;-93
2023/03/26 05:11:37;;;;;;;9.40;7.30;;;;;;;7.84;97.26;99945.53;108458;1257;71920;-95
2023/03/26 05:14:18;;;;;;;9.30;7.60;;;;;;;7.86;97.42;99948.56;109131;1256;61037;-91
2023/03/26 05:17:29;;;;;;;12.20;10.20;;;;;;;7.93;97.42;99942.39;106035;1292;599438;-93
2023/03/26 05:20:39;;;;;;;8.90;7.70;;;;;;;7.92;97.27;99940.42;107943;1267;60450;-91
2023/03/26 05:23:35;;;;;;;8.60;7.50;;;;;;;7.95;97.30;99940.58;108122;1260;58788;-92
2023/03/26 05:26:21;;;;;;;9.00;6.70;;;;;;;7.97;97.07;99938.70;107311;1260;72029;-96
2023/03/26 05:29:03;;;;;;;11.40;8.20;;;;;;;7.94;97.08;99934.70;107218;1263;62771;-95
2023/03/26 05:31:47;;;;;;;6.70;5.80;;;;;;;7.98;97.29;99940.20;106670;1259;788030;-94
2023/03/26 05:34:27;;;;;;;6.80;5.80;;;;;;;8.01;97.18;99934.27;107403;1260;61417;-94
2023/03/26 05:37:29;;;;;;;7.60;6.50;;;;;;;8.03;96.96;99943.34;107783;1256;60770;-96
2023/03/26 05:40:11;;;;;;;6.80;5.90;;;;;;;8.08;96.84;99945.17;107826;1257;71713;-94
2023/03/26 05:42:50;;;;;;;7.30;6.60;;;;;;;8.10;96.49;99946.59;107221;1256;63577;-95
2023/03/26 05:45:40;;;;;;;13.90;7.90;;;;;;;8.11;96.37;99943.09;107875;1256;74193;-94
2023/03/26 05:48:55;;;;;;;7.80;6.50;;;;;;;8.06;96.01;99940.55;108254;1256;61521;-95
2023/03/26 05:51:27;;;;;;;11.90;8.30;;;;;;;8.02;96.08;99941.19;107675;1256;60425;-96
2023/03/26 05:54:08;;;;;;;8.50;6.60;;;;;;;7.98;96.36;99937.95;107528;1261;71942;-94
2023/03/26 05:56:43;;;;;;;8.20;6.60;;;;;;;7.97;96.48;99940.48;108087;1256;65441;-96
2023/03/26 05:59:44;;;;;;;8.10;6.00;;;;;;;7.94;96.59;99944.13;107428;1259;74397;-95
2023/03/26 06:02:36;;;;;;;8.60;6.60;;;;;;;7.96;96.88;99945.36;107616;1255;62191;-95
2023/03/26 06:05:20;;;;;;;10.00;7.50;;;;;;;8.01;96.91;99945.96;107319;1257;59708;-94
2023/03/26 06:08:26;;;;;;;8.90;6.60;;;;;;;8.11;96.55;99944.48;108447;1256;74661;-95
2023/03/26 06:11:21;;;;;;;8.80;7.00;;;;;;;8.12;96.18;99937.95;108775;1260;63441;-93
2023/03/26 06:14:02;;;;;;;7.70;6.70;;;;;;;8.14;96.08;99945.66;108738;1260;72847;-93
2023/03/26 06:17:00;;;;;;;9.30;6.90;;;;;;;8.19;96.06;99950.97;108943;1260;61781;-95
2023/03/26 06:20:14;;;;;;;7.50;6.70;;;;;;;8.19;95.86;99952.21;109003;1260;60284;-93
2023/03/26 06:23:03;;;;;;;6.90;6.20;;;;;;;8.19;95.84;99952.15;109148;1254;75024;-93
2023/03/26 06:26:25;;;;;;;7.30;6.60;;;;;;;8.21;95.91;99952.91;108986;1258;63851;-95
2023/03/26 06:34:40;;;;;;;7.10;5.80;;;;;;;8.37;95.69;99953.00;109658;1252;62492;-92
2023/03/26 06:38:32;;;;;;;6.60;4.90;;;;;;;8.45;95.08;99955.10;109402;1255;61964;-91
2023/03/26 06:41:38;;;;;;;9.10;6.90;;;;;;;8.52;94.71;99962.21;108992;1261;72832;-96
2023/03/26 06:44:48;;;;;;;7.80;6.70;;;;;;;8.57;94.42;99960.85;108725;1267;62317;-94
2023/03/26 06:51:32;;;;;;;7.60;6.30;;;;;;;8.71;93.65;99966.25;108652;1267;60375;-95
2023/03/26 06:54:49;;;;;;;9.90;6.90;;;;;;;8.81;93.53;99964.78;108754;1269;59131;-94
2023/03/26 06:58:34;;;;;;;9.20;6.50;;;;;;;8.88;92.64;99963.44;108792;1268;72724;-96
2023/03/26 07:01:55;;;;;;;9.40;7.30;;;;;;;8.89;92.49;99963.52;108277;1268;65525;-96
2023/03/26 07:05:22;;;;;;;7.00;6.10;;;;;;;8.91;92.25;99956.59;108243;1267;73393;-94
2023/03/26 07:24:19;;;;;;;9.00;6.40;;;;;;;9.15;90.74;99945.67;108543;1268;71400;-96
2023/03/26 07:40:00;;;;;;;9.50;6.70;;;;;;;9.73;88.32;99947.92;108499;1261;616675;-96
2023/03/26 07:44:12;;;;;;;6.70;5.90;;;;;;;9.84;87.31;99944.94;110236;1236;61202;-95
2023/03/26 07:47:33;;;;;;;7.00;5.60;;;;;;;9.86;87.27;99946.52;111247;1244;60282;-96
2023/03/26 07:50:27;;;;;;;8.40;5.60;;;;;;;9.89;87.08;99951.58;110830;1245;71759;-95
2023/03/26 07:53:11;;;;;;;;;;;;;;;9.82;86.73;99946.64;110484;1244;62693;-94
2023/03/26 07:57:01;;;;;;;8.50;6.80;;;;;;;9.79;87.03;99947.39;110676;1240;73554;-96
2023/03/26 08:12:00;;;;;;;10.80;7.40;;;;;;;9.72;87.98;99938.02;112048;1237;66372;-96
2023/03/26 08:15:57;;;;;;;8.80;7.10;;;;;;;9.72;88.18;99934.56;111700;1236;73015;-96
2023/03/26 08:31:02;;;;;;;8.50;6.50;;;;;;;9.62;89.12;99936.29;111681;1240;62861;-96
2023/03/26 08:44:51;;;;;;;11.50;8.00;;;;;;;9.59;89.90;99936.45;111750;1237;73815;-95
2023/03/26 09:11:34;;;;;;;12.30;8.50;;;;;;;9.92;87.14;99922.90;111724;1238;59081;-96
2023/03/26 09:14:46;;;;;;;14.10;9.80;;;;;;;9.97;86.60;99916.64;111234;1241;60095;-95
2023/03/26 09:17:42;;;;;;;11.40;9.60;;;;;;;10.00;86.40;99912.21;111372;1235;71980;-96
2023/03/26 09:24:05;;;;;;;11.80;8.50;;;;;;;10.19;85.43;99917.20;111835;1238;71610;-95
2023/03/26 09:27:53;;;;;;;12.20;8.00;;;;;;;10.19;85.02;99915.27;110583;1235;61879;-95
2023/03/26 09:34:44;;;;;;;12.10;8.30;;;;;;;10.28;84.99;99909.80;105854;1291;613489;-92
2023/03/26 09:37:55;;;;;;;12.60;9.00;;;;;;;10.33;84.67;99906.15;107194;1267;58797;-96
2023/03/26 09:40:50;;;;;;;16.20;10.50;;;;;;;10.34;84.32;99905.85;107628;1264;60359;-96
2023/03/26 09:44:01;;;;;;;13.40;10.90;;;;;;;10.31;84.56;99906.08;108393;1263;72781;-94
2023/03/26 09:47:33;;;;;;;14.20;9.60;;;;;;;10.29;84.55;99897.14;105804;1262;2331822;-94
2023/03/26 09:51:18;;;;;;;15.30;9.60;;;;;;;10.30;84.72;99890.64;107503;1262;71081;-95
2023/03/26 09:54:19;;;;;;;13.90;7.80;;;;;;;10.36;84.78;99889.96;108383;1256;62911;-94
2023/03/26 09:57:52;;;;;;;10.60;6.80;;;;;;;10.44;84.03;99881.39;108512;1258;60278;-96
2023/03/26 10:01:41;;;;;;;9.70;7.20;;;;;;;10.50;83.39;99881.14;107730;1259;73277;-94
2023/03/26 10:04:43;;;;;;;11.00;7.50;;;;;;;10.60;83.07;99876.27;106165;1273;63158;-96
2023/03/26 10:08:13;;;;;;;10.10;6.40;;;;;;;10.65;82.63;99880.25;106991;1273;73052;-96
2023/03/26 10:15:55;;;;;;;13.40;7.30;;;;;;;10.57;82.08;99876.59;109099;1250;60272;-96
2023/03/26 10:22:47;;;;;;;11.00;7.20;;;;;;;10.64;81.61;99876.98;99794;1264;61591;-96
2023/03/26 10:27:06;;;;;;;14.60;8.50;;;;;;;10.70;80.97;99877.41;107597;1277;74600;-96
2023/03/26 10:57:25;;;;;;;12.20;6.90;;;;;;;10.65;81.06;99868.23;107035;1263;63762;-96
2023/03/26 11:11:58;;;;;;;13.30;8.10;;;;;;;10.55;81.52;99859.10;108915;1267;73903;-94
2023/03/26 16:14:21;;;;;;;30.80;19.00;;;;;;;10.30;86.93;99701.95;100609;1270;63193;-95
2023/03/26 17:22:58;;;;;;;28.80;16.10;;;;;;;9.83;92.44;99737.93;102918;1267;60703;-95
2023/03/26 19:11:26;;;;;;;29.80;20.30;;;;;;;9.49;97.09;99721.98;105560;1281;59491;-89
2023/03/26 19:14:19;;;;;;;9.60;8.10;;;;;;;9.48;97.27;99724.52;105299;1277;73649;-89
2023/03/26 19:16:55;;;;;;;7.60;5.30;;;;;;;9.46;97.32;99723.95;104771;1276;64876;-87
2023/03/26 19:19:25;;;;;;;7.70;6.00;;;;;;;9.45;97.47;99720.20;105442;1277;72722;-89
2023/03/26 19:21:54;;;;;;;6.60;4.90;;;;;;;9.45;97.56;99721.77;105513;1282;63046;-90
2023/03/26 19:24:47;;;;;;;18.00;14.00;;;;;;;9.45;97.67;99721.20;106612;1281;60462;-94
2023/03/26 19:27:17;;;;;;;10.10;6.50;;;;;;;9.46;97.71;99714.01;106472;1276;74865;-90
2023/03/26 19:30:05;;;;;;;8.20;6.60;;;;;;;9.51;97.50;99715.20;106391;1279;63919;-86
2023/03/26 19:32:34;;;;;;;6.70;5.60;;;;;;;9.53;97.53;99721.34;107071;1277;73800;-90
2023/03/26 19:35:20;;;;;;;11.60;7.50;;;;;;;9.56;97.54;99725.89;106344;1277;62399;-89
2023/03/26 19:37:52;;;;;;;7.10;6.10;;;;;;;9.59;97.44;99726.68;105901;1280;62131;-90
2023/03/26 19:40:28;;;;;;;10.20;8.70;;;;;;;9.62;97.37;99724.23;104811;1279;73427;-91
2023/03/26 19:42:56;;;;;;;14.60;11.10;;;;;;;9.68;97.49;99726.47;105029;1279;63881;-91
2023/03/26 19:45:25;;;;;;;12.10;9.30;;;;;;;9.72;97.38;99720.52;105547;1279;74402;-93
2023/03/26 19:47:58;;;;;;;9.00;7.70;;;;;;;9.75;96.93;99720.16;105852;1279;64198;-90
2023/03/26 19:51:19;;;;;;;;;;;;;;;;;;;;;
2023/03/26 19:53:57;;;;;;;9.50;8.50;;;;;;;9.82;96.60;99717.20;105574;1279;73581;-87
2023/03/26 19:56:28;;;;;;;8.80;7.60;;;;;;;9.83;96.43;99712.31;106620;1278;63888;-89
2023/03/26 19:58:56;;;;;;;10.80;8.40;;;;;;;9.83;96.16;99713.86;107232;1278;72687;-88
2023/03/26 20:01:31;;;;;;;10.50;9.00;;;;;;;9.81;96.03;99715.20;107685;1280;63077;-92
2023/03/26 20:04:00;;;;;;;8.80;7.90;;;;;;;9.82;96.07;99713.09;106615;1290;60146;-90
2023/03/26 20:06:29;;;;;;;9.00;8.10;;;;;;;9.82;96.06;99711.14;106585;1293;73630;-89
2023/03/26 20:09:11;;;;;;;8.30;6.90;;;;;;;9.84;96.16;99710.84;106603;1290;63853;-91
2023/03/26 20:11:38;;;;;;;7.90;7.20;;;;;;;9.84;95.92;99708.86;106531;1290;73824;-88
2023/03/26 20:14:15;;;;;;;7.30;6.50;;;;;;;9.82;95.90;99709.06;106457;1291;61859;-90
2023/03/26 20:16:44;;;;;;;8.60;6.50;;;;;;;9.79;95.92;99707.00;106440;1290;61415;-90
2023/03/26 20:19:14;;;;;;;7.70;6.10;;;;;;;9.76;95.96;99705.97;106548;1290;73691;-88
2023/03/26 20:21:45;;;;;;;7.60;6.70;;;;;;;9.76;96.14;99703.73;106553;1295;63779;-87
2023/03/26 20:24:16;;;;;;;9.50;7.10;;;;;;;9.77;96.29;99702.09;106560;1290;72756;-89
2023/03/26 20:26:44;;;;;;;10.10;8.00;;;;;;;9.78;96.30;99701.29;106470;1290;63227;-91
2023/03/26 20:29:13;;;;;;;3.50;3.30;;;;;;;9.78;96.06;99697.45;106307;1290;60221;-89
2023/03/26 20:31:42;;;;;;;9.90;8.50;;;;;;;9.77;96.07;99698.94;106292;1290;73781;-87
2023/03/26 20:34:18;;;;;;;8.30;6.90;;;;;;;9.76;96.16;99695.66;106399;1291;63656;-89
2023/03/26 20:36:53;;;;;;;8.60;7.30;;;;;;;9.75;96.03;99695.91;106444;1289;72655;-88
2023/03/26 20:39:22;;;;;;;8.10;6.60;;;;;;;9.72;96.07;99700.48;106351;1289;62943;-88
2023/03/26 20:41:53;;;;;;;10.10;6.80;;;;;;;9.69;96.12;99696.85;106309;1290;59116;-90
2023/03/26 20:44:21;;;;;;;8.00;5.30;;;;;;;9.67;96.36;99693.35;106375;1290;74897;-89
2023/03/26 20:46:52;;;;;;;9.70;7.70;;;;;;;9.68;96.50;99694.34;106318;1290;64866;-91
2023/03/26 20:49:21;;;;;;;8.30;7.20;;;;;;;9.68;96.59;99693.98;106132;1290;74057;-86
2023/03/26 20:51:49;;;;;;;9.30;8.40;;;;;;;9.69;96.64;99698.26;106278;1291;61950;-88
2023/03/26 20:54:23;;;;;;;10.40;8.20;;;;;;;9.70;96.77;99698.05;106303;1290;59423;-87
2023/03/26 20:56:53;;;;;;;7.80;6.00;;;;;;;9.71;96.87;99699.48;106318;1290;75307;-88
2023/03/26 20:59:25;;;;;;;5.10;4.60;;;;;;;9.72;96.68;99700.83;106375;1290;63696;-89
2023/03/26 21:01:55;;;;;;;6.50;5.90;;;;;;;9.71;96.57;99700.19;106435;1290;72811;-87
2023/03/26 21:04:24;;;;;;;7.40;5.50;;;;;;;9.70;96.61;99699.60;106462;1290;62191;-87
2023/03/26 21:06:52;;;;;;;6.70;5.30;;;;;;;9.71;96.85;99699.67;106479;1290;61755;-89
2023/03/26 21:09:32;;;;;;;8.20;6.50;;;;;;;9.75;96.93;99697.86;106307;1290;73741;-88
2023/03/26 21:12:06;;;;;;;7.60;5.40;;;;;;;9.77;96.83;99701.01;106511;1290;63776;-88
2023/03/26 21:14:42;;;;;;;5.70;5.00;;;;;;;9.80;96.82;99698.89;106443;1290;73203;-88
2023/03/26 21:17:14;;;;;;;6.30;5.40;;;;;;;9.82;96.86;99698.08;106439;1290;62031;-88
2023/03/26 21:19:41;;;;;;;6.70;5.20;;;;;;;9.83;96.79;99695.23;106441;1290;61859;-90
2023/03/26 21:22:34;;;;;;;10.90;6.50;;;;;;;9.83;96.66;99690.66;106465;1289;73898;-89
2023/03/26 21:25:16;;;;;;;;;;;;;;;9.82;96.55;99688.27;106246;1293;64690;-88
2023/03/26 21:27:59;;;;;;;7.50;5.80;;;;;;;9.81;96.62;99686.09;106234;1293;73811;-90
2023/03/26 21:30:26;;;;;;;5.60;4.20;;;;;;;9.82;96.67;99685.45;106219;1293;61884;-90
2023/03/26 21:32:54;;;;;;;5.50;5.00;;;;;;;9.83;96.60;99681.39;106148;1293;60722;-88
2023/03/26 21:35:23;;;;;;;5.70;5.00;;;;;;;9.83;96.44;99677.76;106236;1292;73864;-89
2023/03/26 21:37:51;;;;;;;4.40;3.80;;;;;;;9.81;96.40;99677.02;106270;1293;65686;-90
2023/03/26 21:40:19;;;;;;;6.70;5.30;;;;;;;9.80;96.57;99674.10;106224;1293;72704;-89
2023/03/26 21:42:50;;;;;;;9.00;5.80;;;;;;;9.80;96.53;99673.77;106158;1293;61800;-90
2023/03/26 21:45:18;;;;;;;5.10;4.20;;;;;;;9.78;96.58;99672.13;106248;1293;59990;-88
2023/03/26 21:50:46;;;;;;;6.80;5.90;;;;;;;9.77;96.73;99675.69;104826;1285;617423;-86
2023/03/26 21:53:15;;;;;;;8.30;7.00;;;;;;;9.76;96.76;99674.05;107703;1264;60355;-88
2023/03/26 21:55:56;;;;;;;8.30;6.10;;;;;;;9.76;96.72;99674.57;105715;1267;62022;-85
2023/03/26 21:59:07;;;;;;;7.50;5.60;;;;;;;9.74;96.67;99671.55;106501;1263;73202;-87
2023/03/26 22:02:23;;;;;;;5.00;4.60;;;;;;;9.72;96.91;99671.86;107762;1263;65627;-89
2023/03/26 22:05:03;;;;;;;6.80;5.90;;;;;;;9.74;97.15;99669.44;105740;1257;628604;-86
2023/03/26 22:07:43;;;;;;;6.10;5.50;;;;;;;9.77;97.31;99670.47;106230;1257;62695;-89
2023/03/26 22:10:11;;;;;;;9.40;6.70;;;;;;;9.80;97.32;99667.66;106518;1257;61213;-88
2023/03/26 22:12:40;;;;;;;11.50;7.00;;;;;;;9.81;97.32;99661.27;106264;1262;73491;-88
2023/03/26 22:15:12;;;;;;;6.60;6.00;;;;;;;9.84;97.32;99661.06;106224;1262;64662;-86
2023/03/26 22:17:40;;;;;;;6.40;5.70;;;;;;;9.87;97.28;99659.30;106108;1258;73481;-86
2023/03/26 22:20:09;;;;;;;6.90;6.20;;;;;;;9.92;97.33;99658.40;106053;1262;62490;-87
2023/03/26 22:22:36;;;;;;;9.20;6.20;;;;;;;9.97;97.18;99656.81;106154;1262;60269;-87
2023/03/26 22:25:03;;;;;;;7.20;6.50;;;;;;;9.98;96.74;99653.79;106222;1262;74745;-87
2023/03/26 22:27:33;;;;;;;6.70;6.00;;;;;;;9.99;96.62;99653.85;106085;1263;64585;-88
2023/03/26 22:30:11;;;;;;;7.00;6.20;;;;;;;10.05;96.64;99656.77;106437;1257;72568;-88
2023/03/26 22:32:42;;;;;;;7.70;6.60;;;;;;;10.09;96.57;99658.88;107361;1257;63025;-85
2023/03/26 22:35:09;;;;;;;8.60;6.70;;;;;;;10.15;96.44;99658.11;108232;1251;61272;-86
2023/03/26 22:37:36;;;;;;;8.00;6.80;;;;;;;10.18;96.16;99663.10;108050;1254;72870;-87
2023/03/26 22:40:07;;;;;;;11.40;7.90;;;;;;;10.20;96.07;99664.72;107150;1251;64554;-86
2023/03/26 22:42:35;;;;;;;8.70;7.40;;;;;;;10.22;95.87;99669.45;106634;1254;74318;-87
2023/03/26 22:45:08;;;;;;;8.70;7.20;;;;;;;10.24;95.84;99669.30;106407;1254;61599;-90
2023/03/26 22:47:37;;;;;;;8.90;7.20;;;;;;;10.29;95.63;99670.39;106445;1253;61369;-85
2023/03/26 22:50:06;;;;;;;7.60;6.90;;;;;;;10.30;95.38;99668.59;106435;1257;73994;-88
2023/03/26 22:52:35;;;;;;;7.00;6.30;;;;;;;10.29;95.24;99668.98;106563;1256;65008;-88
2023/03/26 22:55:04;;;;;;;9.20;6.00;;;;;;;10.30;95.09;99664.40;106650;1254;72686;-87
2023/03/26 22:57:32;;;;;;;9.20;7.60;;;;;;;10.32;95.04;99665.83;106567;1253;63105;-88
2023/03/26 23:00:11;;;;;;;7.70;6.80;;;;;;;10.33;94.99;99667.30;106650;1255;61465;-87
2023/03/26 23:02:39;;;;;;;8.00;7.10;;;;;;;10.34;94.94;99661.98;106769;1252;74092;-88
2023/03/26 23:05:08;;;;;;;6.70;6.10;;;;;;;10.33;94.65;99666.27;106705;1254;63707;-88
2023/03/26 23:07:36;;;;;;;10.70;7.50;;;;;;;10.26;94.40;99665.83;106551;1252;73732;-89
2023/03/26 23:10:04;;;;;;;8.20;7.20;;;;;;;10.18;94.52;99666.77;106554;1256;62868;-88
2023/03/26 23:12:34;;;;;;;7.30;6.50;;;;;;;10.09;94.74;99664.67;106446;1253;61281;-87
2023/03/26 23:15:04;;;;;;;8.70;7.70;;;;;;;10.07;95.12;99668.63;106541;1257;73987;-86
2023/03/26 23:17:34;;;;;;;8.30;7.50;;;;;;;10.07;95.32;99669.17;106660;1252;64578;-84
2023/03/26 23:20:04;;;;;;;9.30;7.40;;;;;;;10.08;95.46;99665.44;106688;1254;72682;-84
2023/03/26 23:22:34;;;;;;;11.00;8.30;;;;;;;10.09;95.62;99664.48;106561;1257;61787;-90
2023/03/26 23:25:02;;;;;;;11.50;8.20;;;;;;;10.09;95.70;99662.73;106529;1253;61357;-89
2023/03/26 23:27:31;;;;;;;9.80;8.80;;;;;;;10.09;95.71;99662.88;106702;1256;74482;-87
2023/03/26 23:30:00;;;;;;;9.60;8.40;;;;;;;10.09;95.75;99656.11;106915;1253;64697;-87
2023/03/26 23:32:31;;;;;;;9.00;8.00;;;;;;;10.09;95.74;99653.64;106984;1252;72424;-90
2023/03/26 23:34:59;;;;;;;8.60;7.60;;;;;;;10.10;95.73;99653.79;106714;1253;62633;-86
2023/03/26 23:37:28;;;;;;;10.40;9.30;;;;;;;10.10;95.69;99652.68;106706;1254;61431;-88
2023/03/26 23:39:57;;;;;;;10.40;9.30;;;;;;;10.11;95.79;99655.77;106674;1255;74182;-89